createdAt,value
2022-10-24T00:12:56.183Z,3.23
2022-10-24T00:28:00.560Z,3.17
2022-10-24T00:43:04.967Z,2.60
2022-10-24T00:58:10.596Z,3.07
2022-10-24T01:13:26.517Z,3.13
2022-10-24T01:28:37.606Z,2.63
2022-10-24T01:43:45.414Z,3.10
2022-10-24T01:58:50.326Z,4.43
2022-10-24T02:13:58.871Z,3.60
2022-10-24T02:29:06.486Z,4.73
2022-10-24T02:44:12.636Z,4.23
2022-10-24T02:59:17.076Z,5.73
2022-10-24T03:14:21.470Z,5.60
2022-10-24T03:29:25.867Z,5.83
2022-10-24T03:44:30.261Z,6.60
2022-10-24T03:59:34.584Z,4.90
2022-10-24T04:14:39.068Z,5.60
2022-10-24T04:29:43.400Z,6.30
2022-10-24T04:44:47.845Z,6.70
2022-10-24T04:59:52.203Z,5.73
2022-10-24T05:14:56.680Z,6.60
2022-10-24T05:30:01.017Z,6.10
2022-10-24T05:45:06.180Z,6.60
2022-10-24T06:00:14.561Z,14.20
2022-10-24T06:15:18.997Z,6.27
2022-10-24T06:30:23.337Z,8.90
2022-10-24T06:45:27.744Z,9.30
2022-10-24T07:00:32.134Z,7.43
2022-10-24T07:15:36.509Z,9.10
2022-10-24T07:30:41.130Z,8.33
2022-10-24T07:45:49.132Z,8.63
2022-10-24T08:00:56.803Z,8.83
2022-10-24T08:16:01.297Z,16.77
2022-10-24T08:31:08.037Z,9.27
2022-10-24T08:46:32.682Z,10.97
2022-10-24T09:01:44.065Z,8.27
2022-10-24T09:16:53.251Z,9.93
2022-10-24T09:31:57.707Z,8.63
2022-10-24T09:47:02.958Z,8.67
2022-10-24T10:02:27.177Z,6.60
2022-10-24T10:17:32.993Z,9.07
2022-10-24T10:32:46.114Z,6.77
2022-10-24T10:48:04.993Z,7.77
2022-10-24T11:03:22.695Z,6.27
2022-10-24T11:18:34.558Z,6.27
2022-10-24T11:33:44.540Z,7.03
2022-10-24T11:48:53.127Z,6.27
2022-10-24T12:04:09.345Z,5.60
2022-10-24T12:19:17.228Z,5.70
2022-10-24T12:34:49.285Z,6.47
2022-10-24T12:49:53.892Z,6.30
2022-10-24T13:05:11.832Z,5.13
2022-10-24T13:20:21.268Z,5.33
2022-10-24T13:35:26.926Z,4.37
2022-10-24T13:50:34.728Z,4.27
2022-10-24T14:05:45.333Z,3.20
2022-10-24T14:20:55.286Z,3.63
2022-10-24T14:36:02.860Z,3.67
2022-10-24T14:51:10.496Z,4.20
2022-10-24T15:06:26.173Z,3.67
2022-10-24T15:21:36.486Z,3.63
2022-10-24T15:36:43.545Z,4.40
2022-10-24T15:51:50.464Z,3.40
2022-10-24T16:06:55.223Z,3.37
2022-10-24T16:22:00.916Z,2.27
2022-10-24T16:37:05.235Z,2.80
2022-10-24T16:52:09.596Z,3.17
2022-10-24T17:07:14.764Z,3.57
2022-10-24T17:22:19.695Z,4.23
2022-10-24T17:37:33.608Z,3.23
2022-10-24T17:52:40.049Z,3.43
2022-10-24T18:07:45.390Z,4.17
2022-10-24T18:22:50.243Z,3.10
2022-10-24T18:37:54.699Z,6.07
2022-10-24T18:53:04.890Z,3.60
2022-10-24T19:08:14.660Z,2.67
2022-10-24T19:23:19.116Z,3.43
2022-10-24T19:38:24.357Z,3.60
2022-10-24T19:53:28.700Z,4.77
2022-10-24T20:08:33.091Z,3.00
2022-10-24T20:23:37.775Z,3.47
2022-10-24T20:38:42.138Z,3.47
2022-10-24T20:53:46.525Z,3.87
2022-10-24T21:08:52.185Z,4.13
2022-10-24T21:24:02.338Z,3.57
2022-10-24T21:39:15.055Z,3.27
2022-10-24T21:54:21.796Z,3.13
2022-10-24T22:09:26.263Z,3.63
2022-10-24T22:24:30.660Z,3.60
2022-10-24T22:39:35.653Z,3.37
2022-10-24T22:54:40.800Z,3.30
2022-10-24T23:09:45.102Z,3.10
2022-10-24T23:24:50.597Z,3.03
2022-10-24T23:39:55.540Z,3.50
2022-10-24T23:55:00.577Z,4.10
